Time;durP1;ratioP1;P1;durP2;ratioP2;P2;SDS_P1;SDS_P2;PMS_P1;PMS_P2;Temp;Humidity;BMP_temperature;BMP_pressure;BME280_temperature;BME280_humidity;BME280_pressure;Samples;Min_cycle;Max_cycle;Signal;HPM_P1;HPM_P2
2023/07/26 00:01:39;;;;;;;3.60;1.67;;;18.20;86.30;;;;;;5103106;28;20452;-39
2023/07/26 00:04:07;;;;;;;3.30;1.60;;;18.20;86.20;;;;;;5103046;28;20431;-38
2023/07/26 00:06:34;;;;;;;2.93;1.60;;;18.10;86.00;;;;;;5100122;28;20968;-40
2023/07/26 00:09:00;;;;;;;4.93;1.60;;;18.50;86.40;;;;;;5095365;28;20439;-40
2023/07/26 00:11:27;;;;;;;4.97;1.93;;;18.00;86.00;;;;;;5095005;28;20458;-39
2023/07/26 00:13:54;;;;;;;4.07;1.60;;;18.10;86.20;;;;;;5095061;28;20439;-39
2023/07/26 00:16:20;;;;;;;3.80;1.80;;;17.90;86.10;;;;;;5095197;28;20435;-38
2023/07/26 00:18:47;;;;;;;2.53;1.50;;;17.90;86.20;;;;;;5095144;28;20482;-41
2023/07/26 00:21:15;;;;;;;4.83;1.67;;;17.80;86.30;;;;;;5095735;28;20490;-39
2023/07/26 00:23:41;;;;;;;6.30;1.50;;;17.80;86.70;;;;;;5095368;28;20527;-39
2023/07/26 00:26:08;;;;;;;5.17;1.77;;;18.00;87.30;;;;;;5095246;28;20406;-39
2023/07/26 00:28:35;;;;;;;5.13;1.60;;;17.70;87.30;;;;;;5095239;28;20444;-39
2023/07/26 00:31:01;;;;;;;6.10;2.17;;;17.60;88.00;;;;;;5077154;28;20520;-39
2023/07/26 00:33:28;;;;;;;4.80;1.40;;;17.60;88.30;;;;;;5095364;28;20436;-38
2023/07/26 00:35:54;;;;;;;3.20;1.70;;;17.50;88.90;;;;;;5077013;28;20441;-39
2023/07/26 00:38:22;;;;;;;5.50;1.63;;;17.30;89.30;;;;;;5094118;28;20803;-41
2023/07/26 00:40:52;;;;;;;6.37;2.00;;;17.50;89.70;;;;;;5076598;28;20824;-39
2023/07/26 00:43:18;;;;;;;8.30;1.87;;;17.50;89.80;;;;;;5076624;28;20454;-40
2023/07/26 00:45:45;;;;;;;8.30;1.73;;;17.10;89.60;;;;;;5094484;28;20929;-39
2023/07/26 00:48:12;;;;;;;6.50;1.77;;;17.40;90.10;;;;;;5076809;28;20442;-40
2023/07/26 00:50:41;;;;;;;3.87;1.63;;;17.30;90.00;;;;;;5076317;28;20848;-41
2023/07/26 00:53:08;;;;;;;4.13;1.77;;;17.20;90.00;;;;;;5093884;28;20480;-40
2023/07/26 00:55:37;;;;;;;6.67;2.17;;;17.20;90.00;;;;;;5075854;28;20441;-37
2023/07/26 00:58:04;;;;;;;5.73;1.63;;;17.10;90.00;;;;;;5093732;28;20436;-38
2023/07/26 01:00:31;;;;;;;6.33;2.57;;;17.10;90.10;;;;;;5093474;28;20830;-40
2023/07/26 01:02:58;;;;;;;7.67;2.63;;;16.80;90.10;;;;;;5093568;28;20409;-40
2023/07/26 01:05:31;;;;;;;4.73;1.70;;;16.90;90.10;;;;;;5075478;28;20452;-40
2023/07/26 01:08:11;;;;;;;4.70;1.53;;;17.10;90.30;;;;;;5075178;28;20457;-37
2023/07/26 01:10:49;;;;;;;6.03;1.97;;;16.70;90.20;;;;;;5099799;28;20515;-39
2023/07/26 01:13:21;;;;;;;5.57;1.87;;;16.80;90.40;;;;;;5094718;28;20432;-40
2023/07/26 01:15:50;;;;;;;5.80;1.93;;;16.30;90.30;;;;;;5075314;28;20465;-39
2023/07/26 01:18:17;;;;;;;5.07;1.83;;;16.80;90.60;;;;;;5093778;28;20424;-40
2023/07/26 01:20:44;;;;;;;3.70;1.90;;;16.80;90.70;;;;;;5093123;28;20798;-41
2023/07/26 01:23:12;;;;;;;7.00;1.80;;;16.70;90.70;;;;;;5093211;28;20798;-39
2023/07/26 01:25:39;;;;;;;5.33;2.30;;;16.70;90.80;;;;;;5093027;28;20450;-39
2023/07/26 01:28:05;;;;;;;7.10;2.30;;;16.60;90.80;;;;;;5092747;28;20428;-40
2023/07/26 01:30:34;;;;;;;3.77;1.60;;;16.60;90.90;;;;;;5092989;28;20537;-38
2023/07/26 01:33:05;;;;;;;2.50;1.60;;;16.90;91.30;;;;;;5092907;28;20865;-39
2023/07/26 01:35:32;;;;;;;5.53;1.83;;;16.80;91.40;;;;;;5093420;28;20437;-39
2023/07/26 01:37:59;;;;;;;3.63;1.73;;;16.40;91.20;;;;;;5104013;28;20454;-38
2023/07/26 01:40:27;;;;;;;3.73;1.70;;;16.70;91.50;;;;;;5113110;28;20459;-38
2023/07/26 01:42:55;;;;;;;4.53;1.73;;;16.50;91.40;;;;;;5113095;28;20407;-39
2023/07/26 01:45:22;;;;;;;5.20;1.70;;;16.50;91.40;;;;;;5113151;28;20430;-38
2023/07/26 01:47:49;;;;;;;6.73;2.07;;;16.90;91.80;;;;;;5112602;28;20436;-40
2023/07/26 01:50:16;;;;;;;8.30;2.23;;;16.40;91.60;;;;;;5094537;28;20815;-38
2023/07/26 01:52:42;;;;;;;4.73;2.10;;;16.40;91.80;;;;;;5113528;28;20482;-38
2023/07/26 01:55:09;;;;;;;4.20;2.10;;;16.40;91.80;;;;;;5095268;28;20819;-41
2023/07/26 01:57:38;;;;;;;9.63;1.97;;;16.30;92.00;;;;;;5112672;28;20432;-40
2023/07/26 02:00:05;;;;;;;3.97;1.80;;;16.30;92.00;;;;;;5094638;28;20465;-39
2023/07/26 02:02:39;;;;;;;4.90;1.87;;;16.60;92.40;;;;;;5115433;28;20419;-40
2023/07/26 02:05:07;;;;;;;7.60;1.83;;;16.20;92.30;;;;;;5113429;28;20432;-39
2023/07/26 02:07:33;;;;;;;6.37;2.07;;;16.20;92.30;;;;;;5094552;28;20448;-40
2023/07/26 02:10:00;;;;;;;5.17;2.13;;;16.60;92.60;;;;;;5098331;28;20444;-39
2023/07/26 02:12:27;;;;;;;6.53;1.90;;;16.20;92.50;;;;;;5122212;28;20438;-39
2023/07/26 02:14:54;;;;;;;3.70;1.40;;;15.60;92.50;;;;;;5123148;28;20436;-38
2023/07/26 02:17:21;;;;;;;3.40;1.60;;;16.10;92.80;;;;;;5099867;28;20454;-38
2023/07/26 02:19:48;;;;;;;5.13;1.80;;;16.10;93.00;;;;;;5094910;28;20488;-40
2023/07/26 02:22:16;;;;;;;7.20;2.03;;;16.00;93.10;;;;;;5112708;28;20794;-39
2023/07/26 02:24:43;;;;;;;4.80;1.97;;;16.20;93.10;;;;;;5112922;28;20409;-39
2023/07/26 02:27:09;;;;;;;5.27;2.20;;;16.10;93.40;;;;;;5099027;28;20492;-39
2023/07/26 02:29:36;;;;;;;5.70;2.03;;;15.90;93.30;;;;;;5100127;28;20419;-40
2023/07/26 02:32:05;;;;;;;3.33;1.63;;;15.90;93.40;;;;;;5094379;28;20468;-39
2023/07/26 02:34:32;;;;;;;4.20;1.77;;;15.90;93.50;;;;;;5094597;28;21020;-39
2023/07/26 02:36:58;;;;;;;3.87;1.70;;;15.90;93.60;;;;;;5112376;28;20399;-40
2023/07/26 02:39:25;;;;;;;7.30;2.43;;;15.50;93.40;;;;;;5094201;28;21042;-39
2023/07/26 02:41:51;;;;;;;8.37;2.17;;;16.00;93.80;;;;;;5094198;28;20434;-39
2023/07/26 02:44:18;;;;;;;4.63;1.90;;;15.70;93.70;;;;;;5112539;28;20429;-39
2023/07/26 02:46:44;;;;;;;7.20;2.40;;;15.40;93.90;;;;;;5094102;28;20431;-40
2023/07/26 02:49:12;;;;;;;3.90;1.80;;;16.20;94.20;;;;;;5094524;28;20423;-40
2023/07/26 02:51:39;;;;;;;3.10;1.47;;;15.80;94.10;;;;;;5112602;28;20978;-38
2023/07/26 02:54:06;;;;;;;3.10;2.00;;;15.80;94.20;;;;;;5094051;28;20419;-38
2023/07/26 02:56:32;;;;;;;5.60;2.20;;;15.90;94.40;;;;;;5093842;28;20429;-40
2023/07/26 02:58:59;;;;;;;5.43;2.10;;;16.00;94.50;;;;;;5112394;28;20777;-39
2023/07/26 03:01:25;;;;;;;7.40;2.20;;;15.80;94.50;;;;;;5094878;28;20454;-39
2023/07/26 03:03:52;;;;;;;7.60;2.43;;;15.70;94.70;;;;;;5094631;28;20433;-39
2023/07/26 03:06:20;;;;;;;4.73;1.70;;;15.30;94.40;;;;;;5112117;28;20414;-40
2023/07/26 03:08:47;;;;;;;6.40;2.30;;;15.70;94.70;;;;;;5093646;28;20968;-39
2023/07/26 03:11:14;;;;;;;5.70;2.00;;;15.70;94.80;;;;;;5093701;28;20462;-40
2023/07/26 03:13:41;;;;;;;7.80;2.27;;;15.60;94.90;;;;;;5112113;28;20435;-39
2023/07/26 03:16:07;;;;;;;8.47;2.30;;;15.60;95.00;;;;;;5094272;28;20452;-40
2023/07/26 03:18:34;;;;;;;2.80;1.87;;;15.60;95.10;;;;;;5093936;28;20475;-38
2023/07/26 03:21:00;;;;;;;6.40;2.53;;;15.50;95.10;;;;;;5112399;28;20479;-37
2023/07/26 03:23:28;;;;;;;7.07;2.17;;;15.80;95.40;;;;;;5094824;28;20431;-38
2023/07/26 03:25:56;;;;;;;3.40;2.00;;;15.90;95.60;;;;;;5112931;28;20523;-38
2023/07/26 03:28:22;;;;;;;5.33;2.37;;;15.50;95.60;;;;;;5094441;28;20965;-39
2023/07/26 03:30:49;;;;;;;8.40;2.47;;;15.50;95.60;;;;;;5112184;28;20825;-39
2023/07/26 03:33:16;;;;;;;4.97;2.13;;;15.50;95.70;;;;;;5113338;28;20611;-41
2023/07/26 03:35:42;;;;;;;7.17;2.30;;;15.50;95.80;;;;;;5098498;28;20447;-39
2023/07/26 03:38:09;;;;;;;4.43;2.30;;;15.50;96.00;;;;;;5097327;28;20440;-39
2023/07/26 03:40:38;;;;;;;4.80;2.70;;;15.50;96.00;;;;;;5097219;28;20475;-39
2023/07/26 03:43:04;;;;;;;6.07;2.17;;;15.50;96.00;;;;;;5097683;28;20567;-38
2023/07/26 03:45:31;;;;;;;6.70;2.27;;;15.30;96.00;;;;;;5121719;28;20410;-39
2023/07/26 03:47:58;;;;;;;5.73;2.30;;;15.60;96.10;;;;;;5099549;28;20633;-40
2023/07/26 03:50:24;;;;;;;4.30;1.70;;;15.60;96.20;;;;;;5115568;28;20460;-40
2023/07/26 03:52:51;;;;;;;6.00;2.13;;;15.60;96.30;;;;;;5097416;28;20448;-40
2023/07/26 03:55:17;;;;;;;8.57;2.80;;;15.60;96.40;;;;;;5115715;28;20435;-39
2023/07/26 03:57:46;;;;;;;6.37;2.33;;;15.60;96.40;;;;;;5098063;28;20920;-40
2023/07/26 04:00:13;;;;;;;2.70;1.97;;;15.60;96.40;;;;;;5097185;28;20483;-41
2023/07/26 04:02:40;;;;;;;4.30;2.13;;;15.70;96.40;;;;;;5115492;28;20485;-37
2023/07/26 04:05:07;;;;;;;5.90;2.30;;;15.70;96.50;;;;;;5097217;28;20966;-39
2023/07/26 04:07:36;;;;;;;5.90;2.00;;;15.70;96.50;;;;;;5114823;28;20922;-38
2023/07/26 04:10:03;;;;;;;5.23;2.17;;;15.70;96.60;;;;;;5115308;28;20462;-40
2023/07/26 04:12:29;;;;;;;7.60;3.07;;;15.80;96.70;;;;;;5115314;28;20926;-40
2023/07/26 04:14:57;;;;;;;7.40;2.50;;;16.30;97.00;;;;;;5115180;28;20439;-39
2023/07/26 04:17:24;;;;;;;10.47;3.20;;;15.80;96.70;;;;;;5114547;28;20441;-40
2023/07/26 04:19:52;;;;;;;6.30;2.20;;;16.10;96.80;;;;;;5096564;28;20440;-40
2023/07/26 04:22:19;;;;;;;5.80;2.53;;;16.10;96.90;;;;;;5115738;28;20444;-37
2023/07/26 04:24:46;;;;;;;7.57;2.40;;;15.90;96.90;;;;;;5115523;28;20436;-40
2023/07/26 04:27:12;;;;;;;6.63;3.17;;;15.40;96.70;;;;;;5115093;28;20436;-39
2023/07/26 04:29:41;;;;;;;4.63;2.30;;;15.90;96.90;;;;;;5116698;28;20411;-39
2023/07/26 04:32:09;;;;;;;7.53;2.40;;;16.40;97.30;;;;;;5117119;28;20451;-40
2023/07/26 04:34:35;;;;;;;4.80;2.30;;;15.90;97.10;;;;;;5116926;28;20432;-41
2023/07/26 04:37:02;;;;;;;5.57;2.60;;;16.00;97.10;;;;;;5100448;28;20418;-39
2023/07/26 04:39:29;;;;;;;5.20;2.07;;;16.10;97.20;;;;;;5116652;28;20445;-38
2023/07/26 04:41:55;;;;;;;4.30;2.23;;;16.10;97.20;;;;;;5115822;28;20491;-39
2023/07/26 04:44:22;;;;;;;5.00;2.30;;;16.20;97.20;;;;;;5116967;28;20427;-39
2023/07/26 04:46:49;;;;;;;11.53;3.00;;;16.20;97.20;;;;;;5118364;28;20432;-39
2023/07/26 04:49:17;;;;;;;6.63;2.40;;;16.30;97.10;;;;;;5116215;28;20432;-39
2023/07/26 04:51:43;;;;;;;8.00;2.60;;;16.40;97.10;;;;;;5115145;28;20475;-40
2023/07/26 04:54:10;;;;;;;4.60;2.20;;;16.50;97.10;;;;;;5114944;28;20461;-38
2023/07/26 04:56:37;;;;;;;11.13;2.50;;;16.50;97.00;;;;;;5115060;28;21006;-39
2023/07/26 04:59:03;;;;;;;4.17;1.93;;;16.30;96.70;;;;;;5115592;28;20448;-38
2023/07/26 05:01:30;;;;;;;5.33;2.27;;;16.80;97.10;;;;;;5097607;28;20658;-38
2023/07/26 05:03:56;;;;;;;6.10;2.07;;;17.10;96.60;;;;;;5121451;28;20437;-39
2023/07/26 05:06:25;;;;;;;8.43;2.80;;;16.90;96.30;;;;;;5116485;28;20532;-39
2023/07/26 05:08:52;;;;;;;5.67;4.23;;;17.10;96.30;;;;;;5116328;28;20504;-40
2023/07/26 05:11:20;;;;;;;6.20;2.40;;;16.70;96.00;;;;;;5115564;28;20509;-40
2023/07/26 05:13:47;;;;;;;3.93;2.30;;;17.10;96.00;;;;;;5117394;28;20428;-39
2023/07/26 05:16:13;;;;;;;10.60;2.60;;;17.00;95.90;;;;;;5115566;28;20448;-39
2023/07/26 05:18:40;;;;;;;28.83;5.23;;;17.40;96.00;;;;;;5115717;28;20961;-39
2023/07/26 05:21:07;;;;;;;5.27;2.30;;;17.20;96.20;;;;;;5115732;28;20473;-41
2023/07/26 05:23:35;;;;;;;4.80;2.00;;;17.30;95.90;;;;;;5116787;28;20432;-39
2023/07/26 05:26:01;;;;;;;9.03;3.80;;;17.30;95.90;;;;;;5117430;28;20443;-40
2023/07/26 05:28:28;;;;;;;8.47;2.53;;;17.20;96.10;;;;;;5116326;28;20435;-40
2023/07/26 05:30:56;;;;;;;7.00;2.63;;;17.10;95.50;;;;;;5116843;28;20516;-38
2023/07/26 05:33:23;;;;;;;6.20;2.40;;;17.40;96.00;;;;;;5116604;28;20408;-41
2023/07/26 05:35:50;;;;;;;6.70;2.70;;;17.00;95.80;;;;;;5116393;28;20429;-38
2023/07/26 05:38:16;;;;;;;12.60;2.77;;;17.10;95.90;;;;;;5116469;28;20915;-37
2023/07/26 05:40:44;;;;;;;8.10;2.50;;;17.10;96.00;;;;;;5113947;28;20890;-39
2023/07/26 05:43:10;;;;;;;6.90;2.83;;;17.20;96.00;;;;;;5114452;28;20429;-38
2023/07/26 05:45:39;;;;;;;6.87;3.47;;;17.30;96.00;;;;;;5097666;28;20447;-41
2023/07/26 05:48:06;;;;;;;6.13;2.60;;;17.30;95.80;;;;;;5115742;28;20431;-41
2023/07/26 05:50:32;;;;;;;7.10;2.57;;;17.60;95.90;;;;;;5116731;28;20440;-39
2023/07/26 05:52:59;;;;;;;8.70;2.27;;;17.50;95.60;;;;;;5116415;28;20434;-39
2023/07/26 05:55:25;;;;;;;5.83;2.70;;;17.60;95.50;;;;;;5118124;28;20434;-40
2023/07/26 05:57:53;;;;;;;5.33;2.53;;;17.70;95.40;;;;;;5117100;28;20429;-38
2023/07/26 06:00:21;;;;;;;7.33;2.90;;;18.10;95.50;;;;;;5113349;28;20454;-39
2023/07/26 06:02:47;;;;;;;8.20;2.77;;;17.70;95.20;;;;;;5113693;28;20480;-39
2023/07/26 06:05:14;;;;;;;9.33;2.83;;;17.80;95.20;;;;;;5113601;28;20434;-39
2023/07/26 06:07:40;;;;;;;7.27;3.03;;;17.70;95.10;;;;;;5115833;28;20810;-38
2023/07/26 06:10:08;;;;;;;5.07;2.37;;;17.90;95.20;;;;;;5121835;28;20426;-38
2023/07/26 06:12:36;;;;;;;10.50;3.17;;;17.90;95.10;;;;;;5122516;28;20422;-39
2023/07/26 06:15:04;;;;;;;7.33;2.30;;;18.00;95.10;;;;;;5122621;28;20437;-40
2023/07/26 06:17:31;;;;;;;7.50;2.30;;;18.10;95.30;;;;;;5120568;28;20411;-38
2023/07/26 06:19:57;;;;;;;5.50;2.67;;;18.30;94.90;;;;;;5118693;28;20462;-40
2023/07/26 06:22:24;;;;;;;5.17;2.43;;;18.30;94.70;;;;;;5117834;28;20923;-40
2023/07/26 06:24:51;;;;;;;6.13;2.00;;;18.40;94.50;;;;;;5114657;28;21003;-40
2023/07/26 06:27:21;;;;;;;6.60;2.30;;;18.50;94.40;;;;;;5113531;28;20409;-40
2023/07/26 06:29:48;;;;;;;7.03;2.90;;;18.60;94.30;;;;;;5113727;28;20476;-38
2023/07/26 06:32:16;;;;;;;7.80;2.23;;;18.70;94.20;;;;;;5113591;28;20527;-42
2023/07/26 06:34:43;;;;;;;9.87;2.50;;;18.70;94.10;;;;;;5113652;28;21015;-40
2023/07/26 06:37:10;;;;;;;8.40;2.47;;;18.80;94.00;;;;;;5113332;28;20441;-39
2023/07/26 06:39:36;;;;;;;9.00;2.40;;;18.80;93.80;;;;;;5115921;28;20434;-39
2023/07/26 06:42:03;;;;;;;9.57;2.57;;;18.90;93.70;;;;;;5114354;28;20547;-41
2023/07/26 06:44:30;;;;;;;6.90;2.83;;;19.00;93.80;;;;;;5113695;28;20428;-40
2023/07/26 06:46:57;;;;;;;6.87;3.27;;;19.10;93.70;;;;;;5112885;28;20927;-42
2023/07/26 06:49:25;;;;;;;5.07;2.20;;;19.20;93.50;;;;;;5113271;28;20857;-40
2023/07/26 06:51:52;;;;;;;6.73;2.00;;;19.30;93.40;;;;;;5113270;28;20469;-41
2023/07/26 06:54:18;;;;;;;5.60;2.00;;;19.40;93.30;;;;;;5114362;28;20487;-40
2023/07/26 06:56:45;;;;;;;9.00;3.17;;;19.40;93.00;;;;;;5114053;28;20519;-39
2023/07/26 06:59:12;;;;;;;5.70;1.63;;;19.20;92.70;;;;;;5114421;28;20955;-40
2023/07/26 07:01:38;;;;;;;6.30;1.97;;;19.50;92.60;;;;;;5113980;28;21023;-40
2023/07/26 07:04:05;;;;;;;2.10;1.30;;;19.50;92.40;;;;;;5113583;28;20443;-40
2023/07/26 07:06:33;;;;;;;10.23;2.40;;;19.50;92.40;;;;;;5113096;28;20435;-40
2023/07/26 07:09:00;;;;;;;5.03;2.27;;;19.50;92.30;;;;;;5115046;28;20525;-38
2023/07/26 07:11:27;;;;;;;6.77;2.00;;;19.60;92.30;;;;;;5118332;28;20458;-39
2023/07/26 07:13:53;;;;;;;3.80;1.93;;;19.70;92.20;;;;;;5118297;28;20439;-37
2023/07/26 07:16:20;;;;;;;4.47;1.97;;;19.90;92.10;;;;;;5117660;28;20555;-40
2023/07/26 07:18:46;;;;;;;6.83;2.10;;;19.90;91.70;;;;;;5118155;28;20429;-41
2023/07/26 07:21:13;;;;;;;3.43;1.60;;;20.00;91.30;;;;;;5117923;28;20475;-40
2023/07/26 07:23:41;;;;;;;6.30;2.20;;;20.00;91.00;;;;;;5118233;28;20914;-41
2023/07/26 07:26:07;;;;;;;6.73;2.30;;;20.00;90.90;;;;;;5118103;28;20429;-39
2023/07/26 07:28:34;;;;;;;5.27;2.67;;;20.10;91.00;;;;;;5117602;28;20460;-40
2023/07/26 07:31:01;;;;;;;5.07;2.37;;;20.20;90.90;;;;;;5099562;28;20483;-39
2023/07/26 07:33:27;;;;;;;3.93;2.07;;;20.30;90.70;;;;;;5121203;28;20434;-41
2023/07/26 07:35:54;;;;;;;3.90;2.00;;;20.40;90.40;;;;;;5117251;28;20438;-41
2023/07/26 07:38:21;;;;;;;4.60;2.10;;;20.50;90.30;;;;;;5101843;28;20535;-41
2023/07/26 07:40:49;;;;;;;3.70;1.77;;;20.60;90.20;;;;;;5119064;28;20449;-40
2023/07/26 07:43:15;;;;;;;4.87;2.00;;;20.90;90.30;;;;;;5118450;28;21015;-40
2023/07/26 07:45:42;;;;;;;3.87;1.53;;;20.70;90.00;;;;;;5100725;28;20456;-38
2023/07/26 07:48:09;;;;;;;5.70;2.17;;;20.60;90.00;;;;;;5118332;28;20449;-39
2023/07/26 07:50:36;;;;;;;4.70;2.07;;;20.80;90.20;;;;;;5120497;28;20466;-40
2023/07/26 07:53:04;;;;;;;7.67;2.20;;;20.90;90.10;;;;;;5104461;28;20434;-41
2023/07/26 07:55:31;;;;;;;4.37;1.90;;;20.80;89.50;;;;;;5123631;28;20475;-41
2023/07/26 07:58:01;;;;;;;6.90;2.20;;;20.80;89.30;;;;;;5123915;28;20507;-40
2023/07/26 08:00:28;;;;;;;5.90;2.03;;;20.90;89.50;;;;;;5120660;28;20940;-41
2023/07/26 08:02:54;;;;;;;3.87;2.17;;;20.90;89.30;;;;;;5116561;28;20478;-40
2023/07/26 08:05:21;;;;;;;3.23;1.80;;;21.00;89.40;;;;;;5116696;28;20873;-42
2023/07/26 08:07:47;;;;;;;5.37;2.50;;;21.00;88.80;;;;;;5116254;28;20435;-40
2023/07/26 08:10:14;;;;;;;3.63;1.80;;;21.00;88.10;;;;;;5116828;28;20453;-40
2023/07/26 08:12:40;;;;;;;3.30;1.73;;;20.90;87.70;;;;;;5116650;28;20487;-40
2023/07/26 08:15:09;;;;;;;4.10;1.60;;;20.80;87.20;;;;;;5116740;28;20457;-41
2023/07/26 08:17:36;;;;;;;4.60;1.90;;;20.90;86.00;;;;;;5115398;28;20780;-39
2023/07/26 08:20:04;;;;;;;4.20;1.83;;;20.90;85.60;;;;;;5115973;28;20435;-39
2023/07/26 08:22:30;;;;;;;4.00;1.80;;;20.90;85.10;;;;;;5099017;28;20470;-39
2023/07/26 08:24:57;;;;;;;2.90;1.50;;;20.90;84.40;;;;;;5116180;28;20423;-39
2023/07/26 08:27:23;;;;;;;3.30;1.67;;;20.90;84.10;;;;;;5115652;28;20456;-41
2023/07/26 08:29:50;;;;;;;3.80;1.93;;;20.90;84.10;;;;;;5115577;28;20441;-40
2023/07/26 08:32:18;;;;;;;3.70;1.87;;;20.90;84.10;;;;;;5117322;28;20434;-40
2023/07/26 08:34:45;;;;;;;4.20;1.83;;;21.00;84.10;;;;;;5117103;28;20434;-39
2023/07/26 08:37:11;;;;;;;4.33;2.00;;;21.00;84.00;;;;;;5121136;28;20439;-38
2023/07/26 08:39:38;;;;;;;4.90;2.20;;;21.10;83.60;;;;;;5116920;28;20445;-42
2023/07/26 08:42:05;;;;;;;3.73;2.00;;;21.10;83.50;;;;;;5116389;28;20474;-40
2023/07/26 08:44:33;;;;;;;3.97;1.80;;;20.90;83.50;;;;;;5097673;28;20443;-39
2023/07/26 08:47:01;;;;;;;5.13;1.90;;;21.30;83.70;;;;;;5116630;28;20433;-42
2023/07/26 08:49:30;;;;;;;3.47;1.63;;;21.20;83.60;;;;;;5117265;28;20480;-40
2023/07/26 08:51:58;;;;;;;5.00;1.73;;;21.20;84.00;;;;;;5117258;28;20474;-39
2023/07/26 08:54:25;;;;;;;4.87;2.13;;;21.30;83.50;;;;;;5117857;28;20433;-40
2023/07/26 08:56:53;;;;;;;7.43;2.63;;;21.40;83.20;;;;;;5118765;28;20470;-38
2023/07/26 08:59:19;;;;;;;10.37;3.07;;;21.40;83.40;;;;;;5097981;28;20805;-39
2023/07/26 09:01:47;;;;;;;7.27;2.23;;;21.40;83.50;;;;;;5116096;28;20477;-41
2023/07/26 09:04:14;;;;;;;4.30;2.30;;;21.40;83.20;;;;;;5114849;28;20438;-39
2023/07/26 09:06:44;;;;;;;4.20;2.27;;;21.50;82.90;;;;;;5115563;28;20477;-41
2023/07/26 09:09:12;;;;;;;8.53;2.10;;;21.50;82.60;;;;;;5116105;28;20438;-40
2023/07/26 09:11:49;;;;;;;2.63;1.83;;;21.50;82.60;;;;;;5116105;28;20512;-40
2023/07/26 09:14:16;;;;;;;5.67;2.10;;;21.50;82.10;;;;;;5117063;28;20457;-40
2023/07/26 09:16:42;;;;;;;8.63;2.13;;;21.60;82.50;;;;;;5099002;28;20451;-40
2023/07/26 09:19:09;;;;;;;3.83;2.10;;;21.80;81.20;;;;;;5117256;28;20435;-40
2023/07/26 09:21:37;;;;;;;4.07;1.90;;;21.90;80.10;;;;;;5116779;28;20482;-39
2023/07/26 09:24:06;;;;;;;2.57;1.50;;;22.00;79.60;;;;;;5099298;28;20548;-40
2023/07/26 09:26:38;;;;;;;6.83;2.80;;;22.10;78.80;;;;;;5115948;28;20431;-39
2023/07/26 09:29:08;;;;;;;3.70;2.23;;;22.10;78.30;;;;;;5115214;28;20442;-38
2023/07/26 09:31:36;;;;;;;5.30;1.90;;;22.10;78.30;;;;;;5113826;28;20480;-39
2023/07/26 09:34:04;;;;;;;5.33;2.30;;;22.00;78.30;;;;;;5114643;28;20920;-40
2023/07/26 09:36:42;;;;;;;5.50;2.20;;;22.00;78.40;;;;;;5114524;28;20443;-40
2023/07/26 09:39:10;;;;;;;3.60;1.60;;;22.10;78.10;;;;;;5114962;28;20459;-41
2023/07/26 09:41:37;;;;;;;4.20;2.00;;;22.00;77.90;;;;;;5114755;28;20459;-39
2023/07/26 09:44:05;;;;;;;3.10;1.70;;;22.00;77.90;;;;;;5114382;28;20438;-39
2023/07/26 09:46:31;;;;;;;7.33;1.90;;;22.00;77.60;;;;;;5114297;28;20942;-43
2023/07/26 09:48:59;;;;;;;4.13;1.73;;;22.10;77.30;;;;;;5114431;28;20442;-40
2023/07/26 09:51:28;;;;;;;3.43;2.10;;;22.10;75.90;;;;;;5114546;28;20466;-41
2023/07/26 09:53:56;;;;;;;4.63;3.03;;;22.10;75.80;;;;;;5113801;28;20435;-40
2023/07/26 09:56:24;;;;;;;4.37;2.17;;;22.10;75.80;;;;;;5114068;28;20436;-40
2023/07/26 09:58:51;;;;;;;4.13;2.77;;;22.10;75.60;;;;;;5113848;28;20447;-39
2023/07/26 10:01:20;;;;;;;3.13;1.60;;;22.00;75.80;;;;;;5113839;28;20485;-38
2023/07/26 10:03:51;;;;;;;6.20;2.50;;;22.00;76.30;;;;;;5114034;28;20884;-40
2023/07/26 10:06:20;;;;;;;5.03;2.00;;;22.10;76.80;;;;;;5114475;28;20443;-41
2023/07/26 10:08:47;;;;;;;5.33;2.10;;;22.10;76.80;;;;;;5113847;28;20934;-41
2023/07/26 10:11:15;;;;;;;2.87;1.70;;;22.10;76.90;;;;;;5114712;28;20447;-40
2023/07/26 10:13:46;;;;;;;3.13;1.77;;;22.20;76.30;;;;;;5117055;28;20436;-39
2023/07/26 10:16:12;;;;;;;3.07;1.47;;;22.30;75.90;;;;;;5117733;28;20432;-41
2023/07/26 10:18:40;;;;;;;3.50;1.50;;;22.50;75.80;;;;;;5115287;28;20440;-39
2023/07/26 10:21:08;;;;;;;5.03;2.03;;;22.50;74.40;;;;;;5116361;28;20433;-40
2023/07/26 10:23:35;;;;;;;3.30;1.70;;;22.50;73.40;;;;;;5117732;28;20471;-39
2023/07/26 10:26:04;;;;;;;3.60;1.40;;;22.40;73.60;;;;;;5117208;28;20440;-40
2023/07/26 10:28:33;;;;;;;2.60;1.80;;;22.40;74.10;;;;;;5116042;28;20457;-41
2023/07/26 10:31:01;;;;;;;4.17;2.10;;;22.40;74.50;;;;;;5117261;28;20487;-38
2023/07/26 10:33:28;;;;;;;3.60;1.77;;;22.50;74.00;;;;;;5116676;28;20437;-40
2023/07/26 10:35:55;;;;;;;4.10;2.20;;;22.50;73.50;;;;;;5117915;28;20413;-42
2023/07/26 10:38:22;;;;;;;3.27;1.80;;;22.60;73.10;;;;;;5119332;28;20449;-40
2023/07/26 10:40:49;;;;;;;3.67;1.53;;;22.70;72.80;;;;;;5120944;28;20452;-39
2023/07/26 10:43:37;;;;;;;2.93;1.90;;;22.80;72.60;;;;;;5122536;28;20470;-40
2023/07/26 10:46:11;;;;;;;3.43;1.80;;;22.90;72.10;;;;;;5123662;28;20433;-40
2023/07/26 10:48:39;;;;;;;3.27;1.90;;;22.90;71.40;;;;;;5123774;28;20847;-40
2023/07/26 10:51:28;;;;;;;3.70;1.60;;;22.80;70.80;;;;;;5123841;28;20464;-40
2023/07/26 10:53:55;;;;;;;3.83;1.77;;;22.80;70.50;;;;;;5119239;28;20432;-40
2023/07/26 10:56:24;;;;;;;2.87;1.90;;;22.80;71.40;;;;;;5118877;28;20960;-39
2023/07/26 10:58:51;;;;;;;2.90;2.00;;;23.00;71.20;;;;;;5119130;28;20432;-40
2023/07/26 11:01:30;;;;;;;5.43;2.27;;;23.00;70.40;;;;;;5118441;28;20461;-41
2023/07/26 11:03:57;;;;;;;3.97;2.00;;;23.20;69.70;;;;;;5098637;28;20472;-39
2023/07/26 11:06:45;;;;;;;4.43;2.33;;;23.20;68.50;;;;;;5116942;28;20425;-40
2023/07/26 11:09:20;;;;;;;4.63;2.60;;;23.30;68.10;;;;;;5116861;28;20443;-40
2023/07/26 11:11:54;;;;;;;6.30;2.40;;;23.40;68.50;;;;;;5116957;28;20462;-39
2023/07/26 11:14:21;;;;;;;4.17;2.03;;;23.70;67.50;;;;;;5116416;28;20437;-39
2023/07/26 11:16:48;;;;;;;3.67;1.83;;;23.60;67.60;;;;;;5115992;28;20434;-39
2023/07/26 11:19:15;;;;;;;4.50;2.60;;;23.60;68.30;;;;;;5117182;28;20438;-39
2023/07/26 11:21:42;;;;;;;4.70;2.30;;;23.40;69.40;;;;;;5117019;28;21005;-38
2023/07/26 11:24:09;;;;;;;5.37;1.97;;;23.30;70.30;;;;;;5117109;28;20477;-39
2023/07/26 11:26:41;;;;;;;3.77;1.83;;;23.00;69.30;;;;;;5116558;28;20435;-39
2023/07/26 11:29:08;;;;;;;3.23;1.70;;;22.70;68.60;;;;;;5116844;28;20442;-40
2023/07/26 11:31:35;;;;;;;3.33;1.63;;;22.50;67.60;;;;;;5119192;28;20834;-40
2023/07/26 11:34:15;;;;;;;2.80;1.63;;;22.20;65.60;;;;;;5120872;28;20433;-39
2023/07/26 11:36:42;;;;;;;3.10;2.00;;;22.00;67.30;;;;;;5116135;28;20446;-39
2023/07/26 11:39:19;;;;;;;4.33;2.20;;;21.90;68.40;;;;;;5117579;28;20529;-41
2023/07/26 11:41:45;;;;;;;3.30;2.03;;;21.90;69.50;;;;;;5116254;28;20440;-39
2023/07/26 11:44:12;;;;;;;5.47;2.03;;;21.80;70.00;;;;;;5116798;28;20478;-41
2023/07/26 11:46:42;;;;;;;3.50;1.70;;;21.80;71.30;;;;;;5116234;28;20463;-41
2023/07/26 11:49:10;;;;;;;5.00;2.10;;;21.80;70.80;;;;;;5117016;28;20434;-39
2023/07/26 11:51:38;;;;;;;2.73;1.77;;;21.90;71.30;;;;;;5116866;28;20490;-42
2023/07/26 11:54:09;;;;;;;3.37;2.13;;;21.90;71.60;;;;;;5116589;28;20807;-42
2023/07/26 11:56:37;;;;;;;5.27;2.10;;;22.00;72.60;;;;;;5116682;28;20438;-40
2023/07/26 11:59:04;;;;;;;6.67;2.77;;;22.10;74.00;;;;;;5116746;28;20443;-40
2023/07/26 12:01:33;;;;;;;4.57;2.70;;;22.20;73.60;;;;;;5116272;28;20456;-40
2023/07/26 12:04:00;;;;;;;6.50;3.03;;;22.30;73.30;;;;;;5115826;28;20479;-40
2023/07/26 12:06:30;;;;;;;2.60;1.97;;;22.40;73.20;;;;;;5115986;28;20439;-39
2023/07/26 12:09:07;;;;;;;4.03;2.20;;;22.40;72.10;;;;;;5115627;28;20440;-38
2023/07/26 12:11:33;;;;;;;4.47;2.63;;;22.40;71.70;;;;;;5117594;28;20476;-41
2023/07/26 12:14:00;;;;;;;6.60;2.27;;;22.30;72.00;;;;;;5116413;28;20519;-39
2023/07/26 12:16:28;;;;;;;2.57;1.80;;;22.30;71.70;;;;;;5116736;28;20432;-38
2023/07/26 12:18:57;;;;;;;3.53;2.00;;;22.40;71.80;;;;;;5115832;28;20955;-39
2023/07/26 12:21:25;;;;;;;5.97;2.57;;;22.40;71.70;;;;;;5116168;28;20539;-38
2023/07/26 12:23:53;;;;;;;4.40;2.87;;;22.50;71.50;;;;;;5116279;28;20475;-40
2023/07/26 12:26:21;;;;;;;3.00;1.97;;;22.60;71.20;;;;;;5116848;28;20435;-39
2023/07/26 12:28:48;;;;;;;3.13;2.00;;;22.80;71.40;;;;;;5116085;28;20514;-40
2023/07/26 12:31:19;;;;;;;4.63;2.47;;;22.90;71.60;;;;;;5116462;28;20528;-40
2023/07/26 12:34:00;;;;;;;4.20;1.63;;;23.00;71.70;;;;;;5116879;28;20503;-39
2023/07/26 12:36:29;;;;;;;3.50;1.93;;;23.30;72.10;;;;;;5116989;28;20943;-40
2023/07/26 12:38:56;;;;;;;4.27;2.20;;;23.10;71.60;;;;;;5116046;28;20438;-39
2023/07/26 12:41:25;;;;;;;4.77;2.80;;;23.40;71.20;;;;;;5117118;28;20461;-40
2023/07/26 12:43:52;;;;;;;4.53;1.80;;;23.60;70.60;;;;;;5115920;28;20450;-40
2023/07/26 12:46:20;;;;;;;6.57;2.10;;;23.70;69.50;;;;;;5116404;28;20422;-39
2023/07/26 12:48:46;;;;;;;4.67;1.70;;;23.90;68.50;;;;;;5117011;28;20487;-40